Portada
METAR-TAF:

METAR-TAF

Aeroports :

Ashe County Airport

West Jefferson, Carolina del Nord, Estats Units d'Amèrica

latitud: 36-26N, longitud: 081-25W, altitud: 969 m

Observació

L'informe es va fer fa 30 minuts, a les 22:55 UTC
Vent 3 kt del Sud-Oest
Temperatura 17°C
Humitat 100%
Pressió 1022 hPa
Visibilitat: 8.0 km
Núvols disperses a una alçada de 100 ft
Cel ennuvolat a una alçada de 11000 ft
boirina

METAR: KGEV 242255Z AUTO 22003KT 5SM BR SCT001 BKN110 17/17 A3017 RMK AO2 LTG DSNT NE AND SE T01670167

Hora: 19:25 (23:25 UTC)


TAF: manca

Observacions i pronòstics meteorològics de més de 4000 aeroports (METAR i TAF).

Les estacions disponibles són els punts grocs i vermells al mapa.

Posi el ratolí al punt desitjat per veure el nom de l'estació.

Feu clic per veure les observacions i els pronòstics meteorològics.

Per canviar el mapa: feu clic els botons verds amb una creu de color negre per apropar; al botó verd amb un guió per allunyar la imatge; o en les fletxes verdes per a mapes adjacents.


METAR-TAF: